sensor_id;sensor_type;location;lat;lon;timestamp;pressure;altitude;pressure_sealevel;temperature;humidity
76424;BME280;65257;52.104;4.268;2023-03-05T00:00:36;102332.25;;;4.64;100.00
76424;BME280;65257;52.104;4.268;2023-03-05T00:03:01;102326.31;;;4.64;100.00
76424;BME280;65257;52.104;4.268;2023-03-05T00:05:27;102328.84;;;4.64;100.00
76424;BME280;65257;52.104;4.268;2023-03-05T00:07:52;102322.38;;;4.67;100.00
76424;BME280;65257;52.104;4.268;2023-03-05T00:10:17;102318.16;;;4.68;100.00
76424;BME280;65257;52.104;4.268;2023-03-05T00:12:43;102311.34;;;4.67;100.00
76424;BME280;65257;52.104;4.268;2023-03-05T00:15:08;102313.00;;;4.66;100.00
76424;BME280;65257;52.104;4.268;2023-03-05T00:17:34;102316.69;;;4.70;100.00
76424;BME280;65257;52.104;4.268;2023-03-05T00:19:59;102313.75;;;4.65;100.00
76424;BME280;65257;52.104;4.268;2023-03-05T00:22:25;102309.56;;;4.66;100.00
76424;BME280;65257;52.104;4.268;2023-03-05T00:24:50;102309.44;;;4.74;100.00
76424;BME280;65257;52.104;4.268;2023-03-05T00:27:16;102309.53;;;4.86;100.00
76424;BME280;65257;52.104;4.268;2023-03-05T00:29:41;102306.25;;;4.87;100.00
76424;BME280;65257;52.104;4.268;2023-03-05T00:32:07;102297.63;;;4.85;100.00
76424;BME280;65257;52.104;4.268;2023-03-05T00:34:32;102305.63;;;4.89;100.00
76424;BME280;65257;52.104;4.268;2023-03-05T00:36:58;102302.41;;;5.02;100.00
76424;BME280;65257;52.104;4.268;2023-03-05T00:39:23;102294.06;;;5.03;100.00
76424;BME280;65257;52.104;4.268;2023-03-05T00:41:48;102295.56;;;5.01;100.00
76424;BME280;65257;52.104;4.268;2023-03-05T00:44:14;102287.69;;;5.08;100.00
76424;BME280;65257;52.104;4.268;2023-03-05T00:46:39;102291.47;;;5.13;100.00
76424;BME280;65257;52.104;4.268;2023-03-05T00:49:05;102291.19;;;5.20;100.00
76424;BME280;65257;52.104;4.268;2023-03-05T00:51:31;102282.00;;;5.32;100.00
76424;BME280;65257;52.104;4.268;2023-03-05T00:53:56;102275.94;;;5.30;100.00
76424;BME280;65257;52.104;4.268;2023-03-05T00:56:22;102281.66;;;5.28;100.00
76424;BME280;65257;52.104;4.268;2023-03-05T00:58:47;102275.94;;;5.30;100.00
76424;BME280;65257;52.104;4.268;2023-03-05T01:01:13;102274.41;;;5.32;100.00
76424;BME280;65257;52.104;4.268;2023-03-05T01:03:38;102270.47;;;5.36;100.00
76424;BME280;65257;52.104;4.268;2023-03-05T01:06:06;102266.38;;;5.38;100.00
76424;BME280;65257;52.104;4.268;2023-03-05T01:08:33;102259.97;;;5.31;100.00
76424;BME280;65257;52.104;4.268;2023-03-05T01:10:59;102264.50;;;5.35;100.00
76424;BME280;65257;52.104;4.268;2023-03-05T01:13:24;102259.66;;;5.38;100.00
76424;BME280;65257;52.104;4.268;2023-03-05T01:15:49;102257.44;;;5.31;100.00
76424;BME280;65257;52.104;4.268;2023-03-05T01:18:17;102248.78;;;5.29;100.00
76424;BME280;65257;52.104;4.268;2023-03-05T01:20:42;102247.78;;;5.27;100.00
76424;BME280;65257;52.104;4.268;2023-03-05T01:23:08;102245.25;;;5.27;100.00
76424;BME280;65257;52.104;4.268;2023-03-05T01:25:34;102248.78;;;5.29;100.00
76424;BME280;65257;52.104;4.268;2023-03-05T01:27:59;102241.66;;;5.35;100.00
76424;BME280;65257;52.104;4.268;2023-03-05T01:30:25;102245.09;;;5.36;100.00
76424;BME280;65257;52.104;4.268;2023-03-05T01:32:50;102232.50;;;5.37;100.00
76424;BME280;65257;52.104;4.268;2023-03-05T01:35:21;102232.34;;;5.46;100.00
76424;BME280;65257;52.104;4.268;2023-03-05T01:37:46;102228.88;;;5.34;100.00
76424;BME280;65257;52.104;4.268;2023-03-05T01:40:14;102239.53;;;5.30;100.00
76424;BME280;65257;52.104;4.268;2023-03-05T01:42:47;102223.50;;;5.09;100.00
76424;BME280;65257;52.104;4.268;2023-03-05T01:45:17;102227.09;;;5.01;100.00
76424;BME280;65257;52.104;4.268;2023-03-05T01:47:43;102215.69;;;4.96;100.00
76424;BME280;65257;52.104;4.268;2023-03-05T01:50:12;102222.53;;;4.97;100.00
76424;BME280;65257;52.104;4.268;2023-03-05T01:52:40;102219.47;;;5.01;100.00
76424;BME280;65257;52.104;4.268;2023-03-05T01:55:14;102207.34;;;4.97;100.00
76424;BME280;65257;52.104;4.268;2023-03-05T01:57:44;102202.00;;;4.94;100.00
76424;BME280;65257;52.104;4.268;2023-03-05T02:00:15;102204.53;;;4.94;100.00
76424;BME280;65257;52.104;4.268;2023-03-05T02:02:42;102201.38;;;4.96;100.00
76424;BME280;65257;52.104;4.268;2023-03-05T02:05:20;102195.91;;;5.02;100.00
76424;BME280;65257;52.104;4.268;2023-03-05T02:07:55;102180.69;;;5.02;100.00
76424;BME280;65257;52.104;4.268;2023-03-05T02:10:26;102180.16;;;5.06;100.00
76424;BME280;65257;52.104;4.268;2023-03-05T02:12:53;102173.28;;;5.15;100.00
76424;BME280;65257;52.104;4.268;2023-03-05T02:15:20;102173.66;;;5.10;100.00
76424;BME280;65257;52.104;4.268;2023-03-05T02:17:46;102167.94;;;5.12;100.00
76424;BME280;65257;52.104;4.268;2023-03-05T02:20:19;102160.16;;;4.99;100.00
76424;BME280;65257;52.104;4.268;2023-03-05T02:22:45;102166.00;;;4.88;100.00
76424;BME280;65257;52.104;4.268;2023-03-05T02:25:19;102157.34;;;4.74;100.00
76424;BME280;65257;52.104;4.268;2023-03-05T02:28:00;102153.66;;;4.71;100.00
76424;BME280;65257;52.104;4.268;2023-03-05T02:30:28;102152.19;;;4.63;100.00
76424;BME280;65257;52.104;4.268;2023-03-05T02:32:53;102144.84;;;4.56;100.00
76424;BME280;65257;52.104;4.268;2023-03-05T02:35:19;102139.25;;;4.60;100.00
76424;BME280;65257;52.104;4.268;2023-03-05T02:37:45;102133.19;;;4.58;100.00
76424;BME280;65257;52.104;4.268;2023-03-05T02:40:11;102128.47;;;4.72;100.00
76424;BME280;65257;52.104;4.268;2023-03-05T02:42:37;102122.97;;;4.78;100.00
76424;BME280;65257;52.104;4.268;2023-03-05T02:45:03;102118.03;;;4.79;100.00
76424;BME280;65257;52.104;4.268;2023-03-05T02:47:29;102120.16;;;4.85;100.00
76424;BME280;65257;52.104;4.268;2023-03-05T02:49:55;102119.78;;;4.80;100.00
76424;BME280;65257;52.104;4.268;2023-03-05T02:52:20;102107.31;;;4.72;100.00
76424;BME280;65257;52.104;4.268;2023-03-05T02:54:48;102115.41;;;4.68;100.00
76424;BME280;65257;52.104;4.268;2023-03-05T02:57:14;102109.69;;;4.70;100.00
76424;BME280;65257;52.104;4.268;2023-03-05T02:59:39;102112.19;;;4.80;100.00
76424;BME280;65257;52.104;4.268;2023-03-05T03:02:05;102107.44;;;4.95;100.00
76424;BME280;65257;52.104;4.268;2023-03-05T03:04:30;102111.22;;;5.00;100.00
76424;BME280;65257;52.104;4.268;2023-03-05T03:06:55;102106.66;;;4.74;100.00
76424;BME280;65257;52.104;4.268;2023-03-05T03:09:21;102099.44;;;4.69;100.00
76424;BME280;65257;52.104;4.268;2023-03-05T03:11:46;102105.50;;;4.71;100.00
76424;BME280;65257;52.104;4.268;2023-03-05T03:14:11;102097.22;;;4.62;100.00
76424;BME280;65257;52.104;4.268;2023-03-05T03:16:37;102083.78;;;4.53;100.00
76424;BME280;65257;52.104;4.268;2023-03-05T03:19:02;102081.50;;;4.56;100.00
76424;BME280;65257;52.104;4.268;2023-03-05T03:21:27;102082.66;;;4.59;100.00
76424;BME280;65257;52.104;4.268;2023-03-05T03:23:53;102083.50;;;4.60;100.00
76424;BME280;65257;52.104;4.268;2023-03-05T03:26:19;102080.75;;;4.57;100.00
76424;BME280;65257;52.104;4.268;2023-03-05T03:28:44;102078.97;;;4.56;100.00
76424;BME280;65257;52.104;4.268;2023-03-05T03:31:10;102073.91;;;4.56;100.00
76424;BME280;65257;52.104;4.268;2023-03-05T03:33:35;102071.47;;;4.57;100.00
76424;BME280;65257;52.104;4.268;2023-03-05T03:36:03;102068.44;;;4.61;100.00
76424;BME280;65257;52.104;4.268;2023-03-05T03:38:28;102065.91;;;4.61;100.00
76424;BME280;65257;52.104;4.268;2023-03-05T03:40:54;102064.50;;;4.65;100.00
76424;BME280;65257;52.104;4.268;2023-03-05T03:43:19;102063.22;;;4.70;100.00
76424;BME280;65257;52.104;4.268;2023-03-05T03:45:45;102063.22;;;4.70;100.00
76424;BME280;65257;52.104;4.268;2023-03-05T03:48:10;102063.44;;;4.73;100.00
76424;BME280;65257;52.104;4.268;2023-03-05T03:50:40;102058.59;;;4.76;100.00
76424;BME280;65257;52.104;4.268;2023-03-05T03:53:06;102060.13;;;4.74;100.00
76424;BME280;65257;52.104;4.268;2023-03-05T03:55:32;102056.47;;;4.70;100.00
76424;BME280;65257;52.104;4.268;2023-03-05T03:57:57;102047.53;;;4.64;100.00
76424;BME280;65257;52.104;4.268;2023-03-05T04:00:23;102053.34;;;4.63;100.00
76424;BME280;65257;52.104;4.268;2023-03-05T04:02:48;102051.69;;;4.63;100.00
76424;BME280;65257;52.104;4.268;2023-03-05T04:05:13;102049.31;;;4.65;100.00
76424;BME280;65257;52.104;4.268;2023-03-05T04:07:39;102045.47;;;4.70;100.00
76424;BME280;65257;52.104;4.268;2023-03-05T04:10:05;102041.41;;;4.72;100.00
76424;BME280;65257;52.104;4.268;2023-03-05T04:12:30;102037.22;;;4.72;100.00
76424;BME280;65257;52.104;4.268;2023-03-05T04:14:55;102032.16;;;4.72;100.00
76424;BME280;65257;52.104;4.268;2023-03-05T04:17:21;102026.44;;;4.75;100.00
76424;BME280;65257;52.104;4.268;2023-03-05T04:19:46;102027.00;;;4.61;100.00
76424;BME280;65257;52.104;4.268;2023-03-05T04:22:14;102024.13;;;4.56;100.00
76424;BME280;65257;52.104;4.268;2023-03-05T04:24:40;102025.28;;;4.50;100.00
76424;BME280;65257;52.104;4.268;2023-03-05T04:27:05;102022.97;;;4.53;100.00
76424;BME280;65257;52.104;4.268;2023-03-05T04:29:32;102013.50;;;4.50;100.00
76424;BME280;65257;52.104;4.268;2023-03-05T04:31:57;102009.84;;;4.47;100.00
76424;BME280;65257;52.104;4.268;2023-03-05T04:34:23;102015.91;;;4.49;100.00
76424;BME280;65257;52.104;4.268;2023-03-05T04:36:49;102007.53;;;4.50;100.00
76424;BME280;65257;52.104;4.268;2023-03-05T04:39:14;102012.59;;;4.50;100.00
76424;BME280;65257;52.104;4.268;2023-03-05T04:41:40;102009.31;;;4.51;100.00
76424;BME280;65257;52.104;4.268;2023-03-05T04:44:05;102009.81;;;4.57;100.00
76424;BME280;65257;52.104;4.268;2023-03-05T04:46:30;102010.25;;;4.63;100.00
76424;BME280;65257;52.104;4.268;2023-03-05T04:48:56;102009.25;;;4.61;100.00
76424;BME280;65257;52.104;4.268;2023-03-05T04:51:22;102005.72;;;4.59;100.00
76424;BME280;65257;52.104;4.268;2023-03-05T04:53:47;102003.94;;;4.58;100.00
76424;BME280;65257;52.104;4.268;2023-03-05T04:56:12;101997.66;;;4.53;100.00
76424;BME280;65257;52.104;4.268;2023-03-05T04:58:38;101994.13;;;4.51;100.00
76424;BME280;65257;52.104;4.268;2023-03-05T05:01:04;101989.03;;;4.51;100.00
76424;BME280;65257;52.104;4.268;2023-03-05T05:03:30;101982.19;;;4.50;100.00
76424;BME280;65257;52.104;4.268;2023-03-05T05:05:57;101986.63;;;4.52;100.00
76424;BME280;65257;52.104;4.268;2023-03-05T05:08:23;101987.09;;;4.58;100.00
76424;BME280;65257;52.104;4.268;2023-03-05T05:11:00;101980.25;;;4.57;100.00
76424;BME280;65257;52.104;4.268;2023-03-05T05:13:26;101974.09;;;4.54;100.00
76424;BME280;65257;52.104;4.268;2023-03-05T05:15:53;101979.84;;;4.63;100.00
76424;BME280;65257;52.104;4.268;2023-03-05T05:18:18;101963.53;;;4.59;100.00
76424;BME280;65257;52.104;4.268;2023-03-05T05:20:44;101974.50;;;4.70;100.00
76424;BME280;65257;52.104;4.268;2023-03-05T05:23:09;101971.97;;;4.70;100.00
76424;BME280;65257;52.104;4.268;2023-03-05T05:25:35;101961.22;;;4.84;100.00
76424;BME280;65257;52.104;4.268;2023-03-05T05:28:00;101961.97;;;4.83;100.00
76424;BME280;65257;52.104;4.268;2023-03-05T05:30:25;101958.78;;;4.85;100.00
76424;BME280;65257;52.104;4.268;2023-03-05T05:32:51;101967.81;;;4.82;100.00
76424;BME280;65257;52.104;4.268;2023-03-05T05:35:16;101953.06;;;4.88;100.00
76424;BME280;65257;52.104;4.268;2023-03-05T05:37:42;101946.72;;;4.93;100.00
76424;BME280;65257;52.104;4.268;2023-03-05T05:40:07;101948.22;;;4.91;100.00
76424;BME280;65257;52.104;4.268;2023-03-05T05:42:36;101950.22;;;4.95;100.00
76424;BME280;65257;52.104;4.268;2023-03-05T05:45:02;101950.66;;;5.01;100.00
76424;BME280;65257;52.104;4.268;2023-03-05T05:47:28;101938.88;;;5.01;100.00
76424;BME280;65257;52.104;4.268;2023-03-05T05:49:54;101944.59;;;4.99;100.00
76424;BME280;65257;52.104;4.268;2023-03-05T05:52:20;101948.84;;;4.77;100.00
76424;BME280;65257;52.104;4.268;2023-03-05T05:54:46;101950.47;;;4.65;100.00
76424;BME280;65257;52.104;4.268;2023-03-05T05:57:12;101948.19;;;4.58;100.00
76424;BME280;65257;52.104;4.268;2023-03-05T05:59:38;101938.13;;;4.48;100.00
76424;BME280;65257;52.104;4.268;2023-03-05T06:02:04;101937.44;;;4.38;100.00
76424;BME280;65257;52.104;4.268;2023-03-05T06:04:30;101939.03;;;4.48;100.00
76424;BME280;65257;52.104;4.268;2023-03-05T06:06:59;101944.97;;;4.49;100.00
76424;BME280;65257;52.104;4.268;2023-03-05T06:09:25;101938.63;;;4.54;100.00
76424;BME280;65257;52.104;4.268;2023-03-05T06:11:51;101928.72;;;4.57;100.00
76424;BME280;65257;52.104;4.268;2023-03-05T06:14:16;101929.41;;;4.66;100.00
76424;BME280;65257;52.104;4.268;2023-03-05T06:16:42;101927.00;;;4.67;100.00
76424;BME280;65257;52.104;4.268;2023-03-05T06:19:10;101934.72;;;4.69;100.00
76424;BME280;65257;52.104;4.268;2023-03-05T06:21:35;101932.06;;;4.67;100.00
76424;BME280;65257;52.104;4.268;2023-03-05T06:24:01;101934.28;;;4.74;100.00
76424;BME280;65257;52.104;4.268;2023-03-05T06:26:26;101933.41;;;4.74;100.00
76424;BME280;65257;52.104;4.268;2023-03-05T06:28:54;101935.84;;;4.72;100.00
76424;BME280;65257;52.104;4.268;2023-03-05T06:31:24;101932.97;;;4.79;100.00
76424;BME280;65257;52.104;4.268;2023-03-05T06:33:51;101927.25;;;4.82;100.00
76424;BME280;65257;52.104;4.268;2023-03-05T06:36:18;101929.00;;;4.83;100.00
76424;BME280;65257;52.104;4.268;2023-03-05T06:38:45;101929.91;;;4.83;100.00
76424;BME280;65257;52.104;4.268;2023-03-05T06:41:13;101922.19;;;4.82;100.00
76424;BME280;65257;52.104;4.268;2023-03-05T06:43:41;101926.59;;;4.84;100.00
76424;BME280;65257;52.104;4.268;2023-03-05T06:46:11;101930.13;;;4.86;100.00
76424;BME280;65257;52.104;4.268;2023-03-05T06:48:37;101922.44;;;4.85;100.00
76424;BME280;65257;52.104;4.268;2023-03-05T06:51:03;101919.66;;;4.82;100.00
76424;BME280;65257;52.104;4.268;2023-03-05T06:53:28;101918.44;;;4.77;100.00
76424;BME280;65257;52.104;4.268;2023-03-05T06:55:54;101926.47;;;4.83;100.00
76424;BME280;65257;52.104;4.268;2023-03-05T06:58:20;101930.63;;;4.71;100.00
76424;BME280;65257;52.104;4.268;2023-03-05T07:00:45;101928.25;;;4.51;100.00
76424;BME280;65257;52.104;4.268;2023-03-05T07:03:11;101926.31;;;4.36;100.00
76424;BME280;65257;52.104;4.268;2023-03-05T07:05:37;101920.22;;;4.34;100.00
76424;BME280;65257;52.104;4.268;2023-03-05T07:08:03;101931.16;;;4.33;100.00
76424;BME280;65257;52.104;4.268;2023-03-05T07:10:29;101932.88;;;4.34;100.00
76424;BME280;65257;52.104;4.268;2023-03-05T07:12:54;101925.53;;;4.37;100.00
76424;BME280;65257;52.104;4.268;2023-03-05T07:15:19;101918.50;;;4.45;100.00
76424;BME280;65257;52.104;4.268;2023-03-05T07:17:45;101916.28;;;4.38;100.00
76424;BME280;65257;52.104;4.268;2023-03-05T07:20:10;101926.00;;;4.43;100.00
76424;BME280;65257;52.104;4.268;2023-03-05T07:22:36;101925.78;;;4.40;100.00
76424;BME280;65257;52.104;4.268;2023-03-05T07:25:02;101925.59;;;4.49;100.00
76424;BME280;65257;52.104;4.268;2023-03-05T07:27:28;101906.44;;;4.53;100.00
76424;BME280;65257;52.104;4.268;2023-03-05T07:29:53;101912.66;;;4.68;100.00
76424;BME280;65257;52.104;4.268;2023-03-05T07:32:19;101919.09;;;4.86;100.00
76424;BME280;65257;52.104;4.268;2023-03-05T07:34:44;101913.44;;;5.00;100.00
76424;BME280;65257;52.104;4.268;2023-03-05T07:37:10;101909.56;;;5.05;100.00
76424;BME280;65257;52.104;4.268;2023-03-05T07:39:35;101913.22;;;5.20;100.00
76424;BME280;65257;52.104;4.268;2023-03-05T07:42:00;101920.28;;;5.24;100.00
76424;BME280;65257;52.104;4.268;2023-03-05T07:44:26;101914.91;;;5.31;100.00
76424;BME280;65257;52.104;4.268;2023-03-05T07:46:51;101916.31;;;5.39;100.00
76424;BME280;65257;52.104;4.268;2023-03-05T07:49:16;101916.13;;;5.36;100.00
76424;BME280;65257;52.104;4.268;2023-03-05T07:51:42;101908.53;;;5.36;100.00
76424;BME280;65257;52.104;4.268;2023-03-05T07:54:08;101915.22;;;5.47;100.00
76424;BME280;65257;52.104;4.268;2023-03-05T07:56:34;101912.69;;;5.47;100.00
76424;BME280;65257;52.104;4.268;2023-03-05T07:59:02;101913.72;;;5.49;100.00
76424;BME280;65257;52.104;4.268;2023-03-05T08:01:29;101911.50;;;5.54;100.00
76424;BME280;65257;52.104;4.268;2023-03-05T08:03:55;101902.66;;;5.60;100.00
76424;BME280;65257;52.104;4.268;2023-03-05T08:06:21;101898.47;;;5.73;100.00
76424;BME280;65257;52.104;4.268;2023-03-05T08:08:46;101894.59;;;5.89;100.00
76424;BME280;65257;52.104;4.268;2023-03-05T08:11:13;101899.38;;;5.85;100.00
76424;BME280;65257;52.104;4.268;2023-03-05T08:13:40;101898.00;;;5.78;100.00
76424;BME280;65257;52.104;4.268;2023-03-05T08:16:10;101896.56;;;5.82;100.00
76424;BME280;65257;52.104;4.268;2023-03-05T08:18:35;101896.03;;;5.62;100.00
76424;BME280;65257;52.104;4.268;2023-03-05T08:21:04;101902.19;;;5.08;100.00
76424;BME280;65257;52.104;4.268;2023-03-05T08:23:30;101898.63;;;4.94;100.00
76424;BME280;65257;52.104;4.268;2023-03-05T08:25:55;101894.16;;;4.69;100.00
76424;BME280;65257;52.104;4.268;2023-03-05T08:28:21;101894.47;;;4.62;100.00
76424;BME280;65257;52.104;4.268;2023-03-05T08:30:47;101898.75;;;4.63;100.00
76424;BME280;65257;52.104;4.268;2023-03-05T08:33:13;101901.00;;;4.70;100.00
76424;BME280;65257;52.104;4.268;2023-03-05T08:35:39;101908.66;;;4.60;100.00
76424;BME280;65257;52.104;4.268;2023-03-05T08:38:05;101902.22;;;4.41;100.00
76424;BME280;65257;52.104;4.268;2023-03-05T08:40:31;101914.84;;;3.98;100.00
76424;BME280;65257;52.104;4.268;2023-03-05T08:42:58;101913.38;;;3.90;100.00
76424;BME280;65257;52.104;4.268;2023-03-05T08:45:26;101901.03;;;3.73;100.00
76424;BME280;65257;52.104;4.268;2023-03-05T08:47:56;101912.19;;;3.65;100.00
76424;BME280;65257;52.104;4.268;2023-03-05T08:50:22;101897.84;;;3.75;100.00
76424;BME280;65257;52.104;4.268;2023-03-05T08:52:48;101893.38;;;3.83;100.00
76424;BME280;65257;52.104;4.268;2023-03-05T08:55:14;101890.06;;;3.94;100.00
76424;BME280;65257;52.104;4.268;2023-03-05T08:57:39;101885.94;;;4.06;100.00
76424;BME280;65257;52.104;4.268;2023-03-05T09:00:05;101888.91;;;4.22;100.00
76424;BME280;65257;52.104;4.268;2023-03-05T09:02:31;101883.34;;;4.38;100.00
76424;BME280;65257;52.104;4.268;2023-03-05T09:04:57;101870.97;;;4.53;100.00
76424;BME280;65257;52.104;4.268;2023-03-05T09:07:22;101867.50;;;4.74;100.00
76424;BME280;65257;52.104;4.268;2023-03-05T09:09:48;101871.03;;;4.76;100.00
76424;BME280;65257;52.104;4.268;2023-03-05T09:12:13;101870.13;;;4.75;100.00
76424;BME280;65257;52.104;4.268;2023-03-05T09:14:40;101874.78;;;4.81;100.00
76424;BME280;65257;52.104;4.268;2023-03-05T09:17:06;101880.78;;;4.93;100.00
76424;BME280;65257;52.104;4.268;2023-03-05T09:19:32;101870.00;;;5.07;100.00
76424;BME280;65257;52.104;4.268;2023-03-05T09:21:57;101867.69;;;5.10;100.00
76424;BME280;65257;52.104;4.268;2023-03-05T09:24:23;101863.25;;;5.19;100.00
76424;BME280;65257;52.104;4.268;2023-03-05T09:26:48;101869.13;;;5.41;100.00
76424;BME280;65257;52.104;4.268;2023-03-05T09:29:14;101864.06;;;5.41;100.00
76424;BME280;65257;52.104;4.268;2023-03-05T09:31:39;101864.94;;;5.53;100.00
76424;BME280;65257;52.104;4.268;2023-03-05T09:34:05;101866.00;;;6.03;100.00
76424;BME280;65257;52.104;4.268;2023-03-05T09:36:31;101866.38;;;6.21;100.00
76424;BME280;65257;52.104;4.268;2023-03-05T09:38:57;101862.53;;;6.39;100.00
76424;BME280;65257;52.104;4.268;2023-03-05T09:44:37;101863.41;;;6.40;100.00
76424;BME280;65257;52.104;4.268;2023-03-05T09:47:16;101867.56;;;6.51;100.00
76424;BME280;65257;52.104;4.268;2023-03-05T09:50:04;101869.06;;;6.60;100.00
76424;BME280;65257;52.104;4.268;2023-03-05T09:52:44;101869.16;;;6.37;100.00
76424;BME280;65257;52.104;4.268;2023-03-05T09:55:23;101862.06;;;6.45;100.00
76424;BME280;65257;52.104;4.268;2023-03-05T09:57:53;101857.44;;;6.64;100.00
76424;BME280;65257;52.104;4.268;2023-03-05T10:00:38;101853.75;;;6.72;100.00
76424;BME280;65257;52.104;4.268;2023-03-05T10:03:55;101847.41;;;6.91;100.00
76424;BME280;65257;52.104;4.268;2023-03-05T10:06:05;101849.91;;;7.42;100.00
76424;BME280;65257;52.104;4.268;2023-03-05T10:11:46;101841.28;;;8.92;100.00
76424;BME280;65257;52.104;4.268;2023-03-05T10:14:37;101838.81;;;9.08;100.00
76424;BME280;65257;52.104;4.268;2023-03-05T10:17:23;101838.47;;;9.02;100.00
76424;BME280;65257;52.104;4.268;2023-03-05T10:20:19;101831.69;;;8.88;100.00
76424;BME280;65257;52.104;4.268;2023-03-05T10:28:21;101819.31;;;9.70;100.00
76424;BME280;65257;52.104;4.268;2023-03-05T10:33:52;101813.03;;;9.96;100.00
76424;BME280;65257;52.104;4.268;2023-03-05T10:44:59;101797.59;;;10.59;100.00
76424;BME280;65257;52.104;4.268;2023-03-05T10:52:45;101785.25;;;10.18;100.00
76424;BME280;65257;52.104;4.268;2023-03-05T10:55:25;101780.00;;;10.65;100.00
76424;BME280;65257;52.104;4.268;2023-03-05T10:57:51;101775.25;;;10.06;100.00
76424;BME280;65257;52.104;4.268;2023-03-05T11:00:20;101771.19;;;9.78;100.00
76424;BME280;65257;52.104;4.268;2023-03-05T11:03:05;101758.84;;;9.71;100.00
76424;BME280;65257;52.104;4.268;2023-03-05T11:05:41;101766.03;;;9.00;100.00
76424;BME280;65257;52.104;4.268;2023-03-05T11:08:22;101759.63;;;8.63;100.00
76424;BME280;65257;52.104;4.268;2023-03-05T11:11:17;101754.88;;;8.69;100.00
76424;BME280;65257;52.104;4.268;2023-03-05T11:13:58;101751.50;;;8.26;100.00
76424;BME280;65257;52.104;4.268;2023-03-05T11:16:30;101747.53;;;8.16;100.00
76424;BME280;65257;52.104;4.268;2023-03-05T11:19:15;101750.38;;;7.93;100.00
76424;BME280;65257;52.104;4.268;2023-03-05T11:21:42;101746.59;;;8.01;100.00
76424;BME280;65257;52.104;4.268;2023-03-05T11:24:16;101748.84;;;8.25;100.00
76424;BME280;65257;52.104;4.268;2023-03-05T11:26:51;101740.41;;;8.26;100.00
76424;BME280;65257;52.104;4.268;2023-03-05T11:29:26;101737.56;;;8.06;100.00
76424;BME280;65257;52.104;4.268;2023-03-05T11:31:52;101733.72;;;7.98;100.00
76424;BME280;65257;52.104;4.268;2023-03-05T11:37:04;101729.91;;;8.06;100.00
76424;BME280;65257;52.104;4.268;2023-03-05T11:39:31;101730.53;;;8.02;100.00
76424;BME280;65257;52.104;4.268;2023-03-05T11:42:04;101729.44;;;7.84;100.00
76424;BME280;65257;52.104;4.268;2023-03-05T11:44:48;101729.63;;;7.87;100.00
76424;BME280;65257;52.104;4.268;2023-03-05T11:49:53;101713.78;;;7.78;100.00
76424;BME280;65257;52.104;4.268;2023-03-05T11:52:25;101715.50;;;7.92;100.00
76424;BME280;65257;52.104;4.268;2023-03-05T12:00:29;101708.00;;;7.53;100.00
76424;BME280;65257;52.104;4.268;2023-03-05T12:02:57;101704.81;;;7.70;100.00
76424;BME280;65257;52.104;4.268;2023-03-05T12:05:26;101693.81;;;7.71;100.00
76424;BME280;65257;52.104;4.268;2023-03-05T12:07:55;101690.34;;;7.84;100.00
76424;BME280;65257;52.104;4.268;2023-03-05T12:10:24;101686.81;;;8.24;100.00
76424;BME280;65257;52.104;4.268;2023-03-05T12:13:08;101691.94;;;8.39;100.00
76424;BME280;65257;52.104;4.268;2023-03-05T12:23:27;101668.41;;;8.00;100.00
76424;BME280;65257;52.104;4.268;2023-03-05T12:25:55;101668.50;;;8.02;100.00
76424;BME280;65257;52.104;4.268;2023-03-05T12:30:58;101669.13;;;7.98;100.00
76424;BME280;65257;52.104;4.268;2023-03-05T12:33:33;101657.09;;;7.95;100.00
76424;BME280;65257;52.104;4.268;2023-03-05T12:36:32;101656.72;;;7.89;100.00
76424;BME280;65257;52.104;4.268;2023-03-05T12:38:57;101652.31;;;7.72;100.00
76424;BME280;65257;52.104;4.268;2023-03-05T12:44:15;101632.75;;;7.58;100.00
76424;BME280;65257;52.104;4.268;2023-03-05T12:46:43;101628.16;;;7.80;100.00
76424;BME280;65257;52.104;4.268;2023-03-05T12:49:33;101635.09;;;7.83;100.00
76424;BME280;65257;52.104;4.268;2023-03-05T12:52:02;101625.00;;;7.84;100.00
76424;BME280;65257;52.104;4.268;2023-03-05T12:54:36;101615.94;;;7.89;100.00
76424;BME280;65257;52.104;4.268;2023-03-05T12:57:18;101613.84;;;7.82;100.00
76424;BME280;65257;52.104;4.268;2023-03-05T13:02:25;101613.66;;;7.79;100.00
76424;BME280;65257;52.104;4.268;2023-03-05T13:04:57;101598.44;;;7.66;100.00
76424;BME280;65257;52.104;4.268;2023-03-05T13:07:24;101592.41;;;7.64;100.00
76424;BME280;65257;52.104;4.268;2023-03-05T13:09:54;101589.22;;;7.68;100.00
76424;BME280;65257;52.104;4.268;2023-03-05T13:12:20;101589.16;;;7.67;100.00
76424;BME280;65257;52.104;4.268;2023-03-05T13:15:06;101582.47;;;7.83;100.00
76424;BME280;65257;52.104;4.268;2023-03-05T13:17:41;101573.41;;;7.44;100.00
76424;BME280;65257;52.104;4.268;2023-03-05T13:20:36;101572.75;;;7.91;100.00
76424;BME280;65257;52.104;4.268;2023-03-05T13:23:23;101562.97;;;7.69;100.00
76424;BME280;65257;52.104;4.268;2023-03-05T13:26:09;101567.38;;;7.57;100.00
76424;BME280;65257;52.104;4.268;2023-03-05T13:28:36;101554.47;;;7.69;100.00
76424;BME280;65257;52.104;4.268;2023-03-05T13:31:12;101564.28;;;8.06;100.00
76424;BME280;65257;52.104;4.268;2023-03-05T13:33:38;101552.94;;;8.31;100.00
76424;BME280;65257;52.104;4.268;2023-03-05T13:36:04;101554.44;;;8.42;100.00
76424;BME280;65257;52.104;4.268;2023-03-05T13:38:35;101554.25;;;8.39;100.00
76424;BME280;65257;52.104;4.268;2023-03-05T13:43:31;101551.44;;;8.19;100.00
76424;BME280;65257;52.104;4.268;2023-03-05T13:45:57;101537.38;;;8.11;100.00
76424;BME280;65257;52.104;4.268;2023-03-05T13:48:25;101537.16;;;8.52;100.00
76424;BME280;65257;52.104;4.268;2023-03-05T13:50:56;101535.66;;;8.72;100.00
76424;BME280;65257;52.104;4.268;2023-03-05T13:53:27;101534.25;;;8.77;100.00